sensor_id;sensor_type;location;lat;lon;timestamp;pressure;altitude;pressure_sealevel;temperature;humidity
64602;BME280;68371;42.630;23.192;2023-06-14T00:00:22;92119.34;;;16.34;100.00
64602;BME280;68371;42.630;23.192;2023-06-14T00:02:50;92114.78;;;16.35;100.00
64602;BME280;68371;42.630;23.192;2023-06-14T00:05:16;92115.16;;;16.33;100.00
64602;BME280;68371;42.630;23.192;2023-06-14T00:07:45;92099.25;;;16.22;100.00
64602;BME280;68371;42.630;23.192;2023-06-14T00:10:14;92108.34;;;16.39;100.00
64602;BME280;68371;42.630;23.192;2023-06-14T00:12:41;92109.50;;;16.38;100.00
64602;BME280;68371;42.630;23.192;2023-06-14T00:15:08;92111.00;;;16.32;100.00
64602;BME280;68371;42.630;23.192;2023-06-14T00:17:36;92114.38;;;16.26;100.00
64602;BME280;68371;42.630;23.192;2023-06-14T00:20:05;92106.06;;;16.27;100.00
64602;BME280;68371;42.630;23.192;2023-06-14T00:22:33;92106.81;;;16.28;100.00
64602;BME280;68371;42.630;23.192;2023-06-14T00:25:03;92101.13;;;16.26;100.00
64602;BME280;68371;42.630;23.192;2023-06-14T00:27:33;91962.47;;;15.25;100.00
64602;BME280;68371;42.630;23.192;2023-06-14T00:30:01;92100.38;;;16.18;100.00
64602;BME280;68371;42.630;23.192;2023-06-14T00:32:28;92104.53;;;16.19;100.00
64602;BME280;68371;42.630;23.192;2023-06-14T00:34:56;92107.22;;;16.26;100.00
64602;BME280;68371;42.630;23.192;2023-06-14T00:37:23;92097.72;;;16.25;100.00
64602;BME280;68371;42.630;23.192;2023-06-14T00:39:50;92098.13;;;16.27;100.00
64602;BME280;68371;42.630;23.192;2023-06-14T00:42:24;92093.19;;;16.26;100.00
64602;BME280;68371;42.630;23.192;2023-06-14T00:44:51;92091.69;;;16.28;100.00
64602;BME280;68371;42.630;23.192;2023-06-14T00:47:19;92098.13;;;16.27;100.00
64602;BME280;68371;42.630;23.192;2023-06-14T00:49:46;92092.81;;;16.27;100.00
64602;BME280;68371;42.630;23.192;2023-06-14T00:52:13;92098.88;;;16.28;100.00
64602;BME280;68371;42.630;23.192;2023-06-14T00:54:40;92092.44;;;16.29;100.00
64602;BME280;68371;42.630;23.192;2023-06-14T00:57:07;92095.09;;;16.29;100.00
64602;BME280;68371;42.630;23.192;2023-06-14T00:59:42;92089.41;;;16.23;100.00
64602;BME280;68371;42.630;23.192;2023-06-14T01:02:09;92090.16;;;16.16;100.00
64602;BME280;68371;42.630;23.192;2023-06-14T01:04:36;92083.72;;;16.17;100.00
64602;BME280;68371;42.630;23.192;2023-06-14T01:07:09;92085.22;;;16.11;100.00
64602;BME280;68371;42.630;23.192;2023-06-14T01:09:48;92079.56;;;16.16;100.00
64602;BME280;68371;42.630;23.192;2023-06-14T01:12:24;92090.16;;;16.20;100.00
64602;BME280;68371;42.630;23.192;2023-06-14T01:15:00;92091.31;;;16.22;100.00
64602;BME280;68371;42.630;23.192;2023-06-14T01:17:29;92085.59;;;16.13;100.00
64602;BME280;68371;42.630;23.192;2023-06-14T01:20:10;92082.94;;;16.10;100.00
64602;BME280;68371;42.630;23.192;2023-06-14T01:22:49;92077.28;;;16.15;100.00
64602;BME280;68371;42.630;23.192;2023-06-14T01:25:16;92075.00;;;16.17;100.00
64602;BME280;68371;42.630;23.192;2023-06-14T01:27:47;92074.25;;;16.16;100.00
64602;BME280;68371;42.630;23.192;2023-06-14T01:30:17;92076.16;;;16.12;100.00
64602;BME280;68371;42.630;23.192;2023-06-14T01:32:44;92074.25;;;16.09;100.00
64602;BME280;68371;42.630;23.192;2023-06-14T01:35:12;92077.63;;;16.10;100.00
64602;BME280;68371;42.630;23.192;2023-06-14T01:37:39;92060.59;;;15.93;100.00
64602;BME280;68371;42.630;23.192;2023-06-14T01:40:09;92073.84;;;16.03;100.00
64602;BME280;68371;42.630;23.192;2023-06-14T01:42:38;92071.22;;;16.00;100.00
64602;BME280;68371;42.630;23.192;2023-06-14T01:45:06;92065.53;;;15.98;100.00
64602;BME280;68371;42.630;23.192;2023-06-14T01:47:34;92070.84;;;15.98;100.00
64602;BME280;68371;42.630;23.192;2023-06-14T01:50:04;92071.56;;;15.91;100.00
64602;BME280;68371;42.630;23.192;2023-06-14T01:52:31;92085.56;;;15.88;100.00
64602;BME280;68371;42.630;23.192;2023-06-14T01:55:00;92089.34;;;15.84;100.00
64602;BME280;68371;42.630;23.192;2023-06-14T01:57:31;92089.34;;;15.84;100.00
64602;BME280;68371;42.630;23.192;2023-06-14T02:00:00;92089.69;;;15.78;100.00
64602;BME280;68371;42.630;23.192;2023-06-14T02:02:30;92095.41;;;15.84;100.00
64602;BME280;68371;42.630;23.192;2023-06-14T02:04:56;92093.88;;;15.87;100.00
64602;BME280;68371;42.630;23.192;2023-06-14T02:07:23;92096.16;;;15.88;100.00
64602;BME280;68371;42.630;23.192;2023-06-14T02:09:50;92104.09;;;15.85;100.00
64602;BME280;68371;42.630;23.192;2023-06-14T02:12:17;92101.06;;;15.86;100.00
64602;BME280;68371;42.630;23.192;2023-06-14T02:14:45;92101.47;;;15.88;100.00
64602;BME280;68371;42.630;23.192;2023-06-14T02:17:12;92101.84;;;15.87;100.00
64602;BME280;68371;42.630;23.192;2023-06-14T02:19:38;92110.53;;;15.84;100.00
64602;BME280;68371;42.630;23.192;2023-06-14T02:22:06;92116.56;;;15.80;100.00
64602;BME280;68371;42.630;23.192;2023-06-14T02:24:32;92111.25;;;15.77;100.00
64602;BME280;68371;42.630;23.192;2023-06-14T02:27:01;92115.81;;;15.80;100.00
64602;BME280;68371;42.630;23.192;2023-06-14T02:29:30;92115.06;;;15.79;100.00
64602;BME280;68371;42.630;23.192;2023-06-14T02:31:58;92120.38;;;15.79;100.00
64602;BME280;68371;42.630;23.192;2023-06-14T02:34:24;92112.03;;;15.85;100.00
64602;BME280;68371;42.630;23.192;2023-06-14T02:36:51;92104.84;;;15.81;100.00
64602;BME280;68371;42.630;23.192;2023-06-14T02:39:18;92114.31;;;15.82;100.00
64602;BME280;68371;42.630;23.192;2023-06-14T02:41:46;92112.78;;;15.74;100.00
64602;BME280;68371;42.630;23.192;2023-06-14T02:44:13;92110.81;;;15.64;100.00
64602;BME280;68371;42.630;23.192;2023-06-14T02:46:40;92112.78;;;15.74;100.00
64602;BME280;68371;42.630;23.192;2023-06-14T02:49:08;92104.03;;;15.70;100.00
64602;BME280;68371;42.630;23.192;2023-06-14T02:51:36;92096.03;;;15.63;100.00
64602;BME280;68371;42.630;23.192;2023-06-14T02:54:03;92102.19;;;15.74;100.00
64602;BME280;68371;42.630;23.192;2023-06-14T02:56:32;92103.69;;;15.79;100.00
64602;BME280;68371;42.630;23.192;2023-06-14T02:58:59;92105.56;;;15.75;100.00
64602;BME280;68371;42.630;23.192;2023-06-14T03:01:26;92101.78;;;15.72;100.00
64602;BME280;68371;42.630;23.192;2023-06-14T03:03:59;92113.13;;;15.73;100.00
64602;BME280;68371;42.630;23.192;2023-06-14T03:06:27;92102.13;;;15.63;100.00
64602;BME280;68371;42.630;23.192;2023-06-14T03:08:55;92110.78;;;15.53;100.00
64602;BME280;68371;42.630;23.192;2023-06-14T03:11:24;92113.81;;;15.55;100.00
64602;BME280;68371;42.630;23.192;2023-06-14T03:13:51;92124.78;;;15.54;100.00
64602;BME280;68371;42.630;23.192;2023-06-14T03:16:21;92123.28;;;15.60;100.00
64602;BME280;68371;42.630;23.192;2023-06-14T03:18:50;92123.25;;;15.56;100.00
64602;BME280;68371;42.630;23.192;2023-06-14T03:21:17;92129.31;;;15.60;100.00
64602;BME280;68371;42.630;23.192;2023-06-14T03:23:45;92136.91;;;15.62;100.00
64602;BME280;68371;42.630;23.192;2023-06-14T03:26:12;92116.38;;;15.37;100.00
64602;BME280;68371;42.630;23.192;2023-06-14T03:28:40;92139.16;;;15.56;100.00
64602;BME280;68371;42.630;23.192;2023-06-14T03:31:10;92140.28;;;15.55;100.00
64602;BME280;68371;42.630;23.192;2023-06-14T03:33:39;92137.97;;;15.47;100.00
64602;BME280;68371;42.630;23.192;2023-06-14T03:36:08;92147.81;;;15.50;100.00
64602;BME280;68371;42.630;23.192;2023-06-14T03:38:35;92146.34;;;15.56;100.00
64602;BME280;68371;42.630;23.192;2023-06-14T03:41:04;92138.03;;;15.57;100.00
64602;BME280;68371;42.630;23.192;2023-06-14T03:43:31;92139.91;;;15.60;100.00
64602;BME280;68371;42.630;23.192;2023-06-14T03:45:58;92137.28;;;15.60;100.00
64602;BME280;68371;42.630;23.192;2023-06-14T03:48:25;92138.78;;;15.58;100.00
64602;BME280;68371;42.630;23.192;2023-06-14T03:50:52;92136.53;;;15.60;100.00
64602;BME280;68371;42.630;23.192;2023-06-14T03:53:20;92141.44;;;15.58;100.00
64602;BME280;68371;42.630;23.192;2023-06-14T03:55:48;92115.63;;;15.37;100.00
64602;BME280;68371;42.630;23.192;2023-06-14T03:58:19;92127.75;;;15.41;100.00
64602;BME280;68371;42.630;23.192;2023-06-14T04:00:46;92140.28;;;15.55;100.00
64602;BME280;68371;42.630;23.192;2023-06-14T04:03:12;92147.13;;;15.63;100.00
64602;BME280;68371;42.630;23.192;2023-06-14T04:05:40;92144.13;;;15.69;100.00
64602;BME280;68371;42.630;23.192;2023-06-14T04:08:09;92117.19;;;15.49;100.00
64602;BME280;68371;42.630;23.192;2023-06-14T04:10:40;92147.56;;;15.76;100.00
64602;BME280;68371;42.630;23.192;2023-06-14T04:13:07;92146.06;;;15.79;100.00
64602;BME280;68371;42.630;23.192;2023-06-14T04:15:42;92143.44;;;15.82;100.00
64602;BME280;68371;42.630;23.192;2023-06-14T04:18:10;92143.84;;;15.92;100.00
64602;BME280;68371;42.630;23.192;2023-06-14T04:20:37;92142.38;;;15.98;100.00
64602;BME280;68371;42.630;23.192;2023-06-14T04:23:12;92140.88;;;16.04;100.00
64602;BME280;68371;42.630;23.192;2023-06-14T04:25:42;92140.84;;;16.08;100.00
64602;BME280;68371;42.630;23.192;2023-06-14T04:28:13;92142.75;;;16.11;100.00
64602;BME280;68371;42.630;23.192;2023-06-14T04:30:43;92140.84;;;16.08;100.00
64602;BME280;68371;42.630;23.192;2023-06-14T04:33:11;92132.91;;;16.11;100.00
64602;BME280;68371;42.630;23.192;2023-06-14T04:35:39;92131.78;;;16.19;100.00
64602;BME280;68371;42.630;23.192;2023-06-14T04:38:07;92139.78;;;16.27;100.00
64602;BME280;68371;42.630;23.192;2023-06-14T04:40:38;92135.97;;;16.31;100.00
64602;BME280;68371;42.630;23.192;2023-06-14T04:43:09;92144.72;;;16.39;100.00
64602;BME280;68371;42.630;23.192;2023-06-14T04:45:38;92133.34;;;16.35;100.00
64602;BME280;68371;42.630;23.192;2023-06-14T04:48:13;92144.34;;;16.48;100.00
64602;BME280;68371;42.630;23.192;2023-06-14T04:50:43;92141.31;;;16.53;100.00
64602;BME280;68371;42.630;23.192;2023-06-14T04:53:12;92143.19;;;16.56;100.00
64602;BME280;68371;42.630;23.192;2023-06-14T04:55:38;92132.97;;;16.40;100.00
64602;BME280;68371;42.630;23.192;2023-06-14T04:58:12;92154.94;;;16.51;100.00
64602;BME280;68371;42.630;23.192;2023-06-14T05:00:39;92159.88;;;16.53;99.17
64602;BME280;68371;42.630;23.192;2023-06-14T05:03:09;92156.44;;;16.52;99.02
64602;BME280;68371;42.630;23.192;2023-06-14T05:05:40;92150.41;;;16.45;97.14
64602;BME280;68371;42.630;23.192;2023-06-14T05:08:08;92161.75;;;16.52;97.42
64602;BME280;68371;42.630;23.192;2023-06-14T05:10:35;92167.06;;;16.56;97.16
64602;BME280;68371;42.630;23.192;2023-06-14T05:13:02;92170.47;;;16.60;99.12
64602;BME280;68371;42.630;23.192;2023-06-14T05:15:29;92165.19;;;16.63;100.00
64602;BME280;68371;42.630;23.192;2023-06-14T05:17:56;92175.78;;;16.67;100.00
64602;BME280;68371;42.630;23.192;2023-06-14T05:20:23;92175.41;;;16.79;100.00
64602;BME280;68371;42.630;23.192;2023-06-14T05:22:53;92178.47;;;16.92;100.00
64602;BME280;68371;42.630;23.192;2023-06-14T05:25:22;92189.06;;;17.07;99.06
64602;BME280;68371;42.630;23.192;2023-06-14T05:27:49;92189.44;;;17.05;98.16
64602;BME280;68371;42.630;23.192;2023-06-14T05:30:15;92189.84;;;17.11;99.68
64602;BME280;68371;42.630;23.192;2023-06-14T05:32:45;92194.03;;;17.15;96.72
64602;BME280;68371;42.630;23.192;2023-06-14T05:35:14;92170.50;;;17.10;98.59
64602;BME280;68371;42.630;23.192;2023-06-14T05:37:40;92180.00;;;17.00;94.28
64602;BME280;68371;42.630;23.192;2023-06-14T05:40:11;92196.69;;;17.15;96.93
64602;BME280;68371;42.630;23.192;2023-06-14T05:42:45;92195.53;;;17.16;96.93
64602;BME280;68371;42.630;23.192;2023-06-14T05:45:14;92194.75;;;17.23;95.55
64602;BME280;68371;42.630;23.192;2023-06-14T05:47:41;92198.56;;;17.18;95.65
64602;BME280;68371;42.630;23.192;2023-06-14T05:50:10;92198.94;;;17.20;95.17
64602;BME280;68371;42.630;23.192;2023-06-14T05:52:36;92203.47;;;17.13;94.90
64602;BME280;68371;42.630;23.192;2023-06-14T05:55:04;92205.75;;;17.25;94.20
64602;BME280;68371;42.630;23.192;2023-06-14T05:57:33;92208.03;;;17.23;93.51
64602;BME280;68371;42.630;23.192;2023-06-14T06:00:00;92211.84;;;17.26;93.50
64602;BME280;68371;42.630;23.192;2023-06-14T06:02:30;92214.47;;;17.29;95.00
64602;BME280;68371;42.630;23.192;2023-06-14T06:04:57;92213.34;;;17.27;95.32
64602;BME280;68371;42.630;23.192;2023-06-14T06:07:24;92215.59;;;17.35;96.40
64602;BME280;68371;42.630;23.192;2023-06-14T06:09:50;92211.06;;;17.36;94.87
64602;BME280;68371;42.630;23.192;2023-06-14T06:12:17;92213.31;;;17.45;96.80
64602;BME280;68371;42.630;23.192;2023-06-14T06:14:47;92213.31;;;17.45;94.56
64602;BME280;68371;42.630;23.192;2023-06-14T06:17:15;92171.63;;;17.31;96.56
64602;BME280;68371;42.630;23.192;2023-06-14T06:19:42;92207.22;;;17.58;97.26
64602;BME280;68371;42.630;23.192;2023-06-14T06:22:10;92218.59;;;17.66;94.62
64602;BME280;68371;42.630;23.192;2023-06-14T06:24:37;92225.44;;;17.56;91.75
64602;BME280;68371;42.630;23.192;2023-06-14T06:27:04;92220.50;;;17.55;93.33
64602;BME280;68371;42.630;23.192;2023-06-14T06:29:33;92203.03;;;17.61;94.87
64602;BME280;68371;42.630;23.192;2023-06-14T06:32:01;92210.22;;;17.78;96.64
64602;BME280;68371;42.630;23.192;2023-06-14T06:34:28;92206.00;;;17.92;96.13
64602;BME280;68371;42.630;23.192;2023-06-14T06:36:55;92206.38;;;17.94;95.51
64602;BME280;68371;42.630;23.192;2023-06-14T06:39:22;92187.81;;;17.76;94.34
64602;BME280;68371;42.630;23.192;2023-06-14T06:41:48;92204.81;;;18.04;93.47
64602;BME280;68371;42.630;23.192;2023-06-14T06:44:17;92192.34;;;17.86;89.58
64602;BME280;68371;42.630;23.192;2023-06-14T06:46:43;92208.59;;;18.17;89.57
64602;BME280;68371;42.630;23.192;2023-06-14T06:49:13;92211.25;;;18.17;88.50
64602;BME280;68371;42.630;23.192;2023-06-14T06:51:59;92210.38;;;18.34;89.09
64602;BME280;68371;42.630;23.192;2023-06-14T06:54:26;92208.09;;;18.36;85.34
64602;BME280;68371;42.630;23.192;2023-06-14T06:56:52;92214.88;;;18.45;86.05
64602;BME280;68371;42.630;23.192;2023-06-14T06:59:19;92202.38;;;18.45;85.81
64602;BME280;68371;42.630;23.192;2023-06-14T07:01:48;92219.75;;;18.57;87.83
64602;BME280;68371;42.630;23.192;2023-06-14T07:04:18;92223.59;;;18.49;88.61
64602;BME280;68371;42.630;23.192;2023-06-14T07:06:47;92222.53;;;18.35;85.86
64602;BME280;68371;42.630;23.192;2023-06-14T07:09:14;92218.66;;;18.51;86.25
64602;BME280;68371;42.630;23.192;2023-06-14T07:11:43;92219.75;;;18.60;86.92
64602;BME280;68371;42.630;23.192;2023-06-14T07:14:10;92220.84;;;18.63;90.57
64602;BME280;68371;42.630;23.192;2023-06-14T07:16:37;92216.59;;;18.84;88.94
64602;BME280;68371;42.630;23.192;2023-06-14T07:19:04;92208.56;;;18.87;89.86
64602;BME280;68371;42.630;23.192;2023-06-14T07:21:32;92218.00;;;18.95;93.82
64602;BME280;68371;42.630;23.192;2023-06-14T07:23:59;92217.25;;;18.95;91.56
64602;BME280;68371;42.630;23.192;2023-06-14T07:26:26;92220.69;;;18.95;93.72
64602;BME280;68371;42.630;23.192;2023-06-14T07:28:53;92223.75;;;18.94;92.97
64602;BME280;68371;42.630;23.192;2023-06-14T07:31:19;92206.22;;;18.96;92.08
64602;BME280;68371;42.630;23.192;2023-06-14T07:33:46;92217.94;;;19.06;92.30
64602;BME280;68371;42.630;23.192;2023-06-14T07:36:16;92201.63;;;19.00;90.45
64602;BME280;68371;42.630;23.192;2023-06-14T07:38:47;92219.81;;;19.09;90.92
64602;BME280;68371;42.630;23.192;2023-06-14T07:41:16;92220.56;;;19.10;90.90
64602;BME280;68371;42.630;23.192;2023-06-14T07:43:42;92218.69;;;19.10;90.02
64602;BME280;68371;42.630;23.192;2023-06-14T07:46:09;92220.50;;;19.20;93.49
64602;BME280;68371;42.630;23.192;2023-06-14T07:48:36;92222.06;;;19.14;90.42
64602;BME280;68371;42.630;23.192;2023-06-14T07:51:02;92223.97;;;19.14;90.39
64602;BME280;68371;42.630;23.192;2023-06-14T07:53:29;92229.63;;;19.19;90.26
64602;BME280;68371;42.630;23.192;2023-06-14T07:55:58;92228.78;;;19.30;90.42
64602;BME280;68371;42.630;23.192;2023-06-14T07:58:25;92238.63;;;19.36;89.58
64602;BME280;68371;42.630;23.192;2023-06-14T08:00:52;92220.06;;;19.26;87.25
64602;BME280;68371;42.630;23.192;2023-06-14T08:03:20;92238.22;;;19.38;88.06
64602;BME280;68371;42.630;23.192;2023-06-14T08:05:47;92243.47;;;19.49;88.62
64602;BME280;68371;42.630;23.192;2023-06-14T08:08:16;92247.50;;;19.64;87.93
64602;BME280;68371;42.630;23.192;2023-06-14T08:10:44;92246.63;;;19.81;87.55
64602;BME280;68371;42.630;23.192;2023-06-14T08:13:12;92254.44;;;19.99;87.92
64602;BME280;68371;42.630;23.192;2023-06-14T08:15:38;92252.56;;;19.93;85.22
64602;BME280;68371;42.630;23.192;2023-06-14T08:18:05;92253.19;;;20.08;87.27
64602;BME280;68371;42.630;23.192;2023-06-14T08:20:32;92263.34;;;20.20;87.10
64602;BME280;68371;42.630;23.192;2023-06-14T08:23:00;92257.13;;;20.30;87.12
64602;BME280;68371;42.630;23.192;2023-06-14T08:25:27;92255.22;;;20.31;85.80
64602;BME280;68371;42.630;23.192;2023-06-14T08:27:53;92259.63;;;20.45;84.77
64602;BME280;68371;42.630;23.192;2023-06-14T08:30:23;92258.44;;;20.46;83.93
64602;BME280;68371;42.630;23.192;2023-06-14T08:32:51;92247.00;;;20.49;83.24
64602;BME280;68371;42.630;23.192;2023-06-14T08:35:22;92257.19;;;20.54;81.96
64602;BME280;68371;42.630;23.192;2023-06-14T08:37:49;92248.81;;;20.55;81.04
64602;BME280;68371;42.630;23.192;2023-06-14T08:40:19;92249.97;;;20.54;79.49
64602;BME280;68371;42.630;23.192;2023-06-14T08:42:50;92248.38;;;20.64;80.11
64602;BME280;68371;42.630;23.192;2023-06-14T08:45:19;92240.28;;;20.68;79.22
64602;BME280;68371;42.630;23.192;2023-06-14T08:47:50;92237.34;;;20.89;82.27
64602;BME280;68371;42.630;23.192;2023-06-14T08:50:23;92233.41;;;20.97;80.15
64602;BME280;68371;42.630;23.192;2023-06-14T08:52:56;92242.97;;;20.95;77.15
64602;BME280;68371;42.630;23.192;2023-06-14T08:55:26;92240.19;;;21.02;77.72
64602;BME280;68371;42.630;23.192;2023-06-14T08:57:54;92237.69;;;20.64;75.76
64602;BME280;68371;42.630;23.192;2023-06-14T09:00:23;92247.84;;;20.73;78.09
64602;BME280;68371;42.630;23.192;2023-06-14T09:02:54;92255.88;;;20.73;77.54
64602;BME280;68371;42.630;23.192;2023-06-14T09:05:23;92255.81;;;20.76;78.09
64602;BME280;68371;42.630;23.192;2023-06-14T09:07:50;92243.69;;;20.99;83.80
64602;BME280;68371;42.630;23.192;2023-06-14T09:10:20;92243.31;;;20.97;76.75
64602;BME280;68371;42.630;23.192;2023-06-14T09:12:51;92241.44;;;20.94;74.33
64602;BME280;68371;42.630;23.192;2023-06-14T09:15:19;92240.09;;;21.09;78.71
64602;BME280;68371;42.630;23.192;2023-06-14T09:17:47;92239.03;;;21.27;81.43
64602;BME280;68371;42.630;23.192;2023-06-14T09:20:15;92226.88;;;21.26;81.66
64602;BME280;68371;42.630;23.192;2023-06-14T09:22:44;92231.56;;;21.45;83.74
64602;BME280;68371;42.630;23.192;2023-06-14T09:25:11;92237.72;;;21.38;79.75
64602;BME280;68371;42.630;23.192;2023-06-14T09:27:40;92233.06;;;21.46;82.13
64602;BME280;68371;42.630;23.192;2023-06-14T09:30:09;92231.94;;;21.44;78.74
64602;BME280;68371;42.630;23.192;2023-06-14T09:32:37;92231.75;;;21.54;82.29
64602;BME280;68371;42.630;23.192;2023-06-14T09:35:06;92228.09;;;21.68;80.48
64602;BME280;68371;42.630;23.192;2023-06-14T09:37:34;92231.41;;;21.76;78.27
64602;BME280;68371;42.630;23.192;2023-06-14T09:40:04;92230.63;;;21.75;77.32
64602;BME280;68371;42.630;23.192;2023-06-14T09:42:31;92227.22;;;21.75;76.74
64602;BME280;68371;42.630;23.192;2023-06-14T09:45:02;92223.28;;;21.59;77.04
64602;BME280;68371;42.630;23.192;2023-06-14T09:47:29;92230.53;;;21.59;77.58
64602;BME280;68371;42.630;23.192;2023-06-14T09:49:56;92221.56;;;21.49;77.43
64602;BME280;68371;42.630;23.192;2023-06-14T09:52:25;92204.91;;;21.38;78.73
64602;BME280;68371;42.630;23.192;2023-06-14T09:54:59;92224.69;;;21.68;84.07
64602;BME280;68371;42.630;23.192;2023-06-14T09:57:27;92216.59;;;21.91;79.31
64602;BME280;68371;42.630;23.192;2023-06-14T09:59:57;92218.94;;;22.09;77.74
64602;BME280;68371;42.630;23.192;2023-06-14T10:02:26;92223.31;;;22.19;76.81
64602;BME280;68371;42.630;23.192;2023-06-14T10:05:01;92220.25;;;22.41;74.08
64602;BME280;68371;42.630;23.192;2023-06-14T10:07:35;92220.59;;;22.43;73.97
64602;BME280;68371;42.630;23.192;2023-06-14T10:10:08;92219.41;;;22.44;78.20
64602;BME280;68371;42.630;23.192;2023-06-14T10:12:37;92221.97;;;22.51;75.54
64602;BME280;68371;42.630;23.192;2023-06-14T10:15:07;92210.22;;;22.65;77.54
64602;BME280;68371;42.630;23.192;2023-06-14T10:17:37;92203.53;;;22.90;78.76
64602;BME280;68371;42.630;23.192;2023-06-14T10:20:19;92191.06;;;22.83;72.41
64602;BME280;68371;42.630;23.192;2023-06-14T10:22:51;92198.28;;;23.03;73.24
64602;BME280;68371;42.630;23.192;2023-06-14T10:25:28;92196.47;;;23.16;73.43
64602;BME280;68371;42.630;23.192;2023-06-14T10:28:14;92193.00;;;23.15;70.40
64602;BME280;68371;42.630;23.192;2023-06-14T10:31:03;92196.88;;;23.31;69.51
64602;BME280;68371;42.630;23.192;2023-06-14T10:33:30;92194.44;;;23.36;71.65
64602;BME280;68371;42.630;23.192;2023-06-14T10:36:23;92194.44;;;23.36;71.11
64602;BME280;68371;42.630;23.192;2023-06-14T10:39:00;92192.56;;;23.66;71.79
64602;BME280;68371;42.630;23.192;2023-06-14T10:41:30;92197.13;;;23.82;71.27
64602;BME280;68371;42.630;23.192;2023-06-14T10:44:37;92199.81;;;23.82;70.37
64602;BME280;68371;42.630;23.192;2023-06-14T10:47:07;92192.81;;;23.55;67.73
64602;BME280;68371;42.630;23.192;2023-06-14T10:49:39;92197.41;;;23.71;70.32
64602;BME280;68371;42.630;23.192;2023-06-14T10:52:11;92190.41;;;23.90;70.14
64602;BME280;68371;42.630;23.192;2023-06-14T10:55:13;92190.56;;;23.99;70.80
64602;BME280;68371;42.630;23.192;2023-06-14T10:57:44;92179.56;;;24.23;71.17
64602;BME280;68371;42.630;23.192;2023-06-14T11:00:14;92175.72;;;24.37;69.36
64602;BME280;68371;42.630;23.192;2023-06-14T11:02:51;92168.53;;;24.47;67.61
64602;BME280;68371;42.630;23.192;2023-06-14T11:05:24;92168.78;;;24.52;66.65
64602;BME280;68371;42.630;23.192;2023-06-14T11:08:04;92150.53;;;24.60;66.72
64602;BME280;68371;42.630;23.192;2023-06-14T11:10:36;92158.91;;;24.75;65.58
64602;BME280;68371;42.630;23.192;2023-06-14T11:13:07;92155.78;;;24.89;65.57
64602;BME280;68371;42.630;23.192;2023-06-14T11:15:36;92152.66;;;24.91;64.24
64602;BME280;68371;42.630;23.192;2023-06-14T11:18:04;92159.34;;;24.86;65.05
64602;BME280;68371;42.630;23.192;2023-06-14T11:20:33;92156.44;;;25.06;66.17
64602;BME280;68371;42.630;23.192;2023-06-14T11:23:01;92166.97;;;25.01;62.35
64602;BME280;68371;42.630;23.192;2023-06-14T11:25:29;92159.31;;;25.12;64.44
64602;BME280;68371;42.630;23.192;2023-06-14T11:27:58;92098.72;;;24.85;64.07
64602;BME280;68371;42.630;23.192;2023-06-14T11:30:30;92156.47;;;25.41;63.87
64602;BME280;68371;42.630;23.192;2023-06-14T11:32:59;92163.97;;;25.59;62.56
64602;BME280;68371;42.630;23.192;2023-06-14T11:35:26;92151.44;;;25.43;61.05
64602;BME280;68371;42.630;23.192;2023-06-14T11:37:56;92129.13;;;25.55;61.42
64602;BME280;68371;42.630;23.192;2023-06-14T11:40:26;92142.31;;;25.85;58.17
64602;BME280;68371;42.630;23.192;2023-06-14T11:43:02;92142.47;;;26.03;57.35
64602;BME280;68371;42.630;23.192;2023-06-14T11:45:31;92133.53;;;26.06;59.57
64602;BME280;68371;42.630;23.192;2023-06-14T11:48:00;92143.34;;;26.22;56.58
64602;BME280;68371;42.630;23.192;2023-06-14T11:50:27;92139.81;;;26.34;58.71
64602;BME280;68371;42.630;23.192;2023-06-14T11:52:56;92133.28;;;26.45;57.52
64602;BME280;68371;42.630;23.192;2023-06-14T11:55:32;92139.97;;;26.62;56.50
64602;BME280;68371;42.630;23.192;2023-06-14T11:58:02;92123.88;;;26.49;52.67
64602;BME280;68371;42.630;23.192;2023-06-14T12:00:35;92126.09;;;26.73;55.04
64602;BME280;68371;42.630;23.192;2023-06-14T12:03:02;92119.72;;;26.89;54.77
64602;BME280;68371;42.630;23.192;2023-06-14T12:05:33;92111.16;;;26.90;50.58
64602;BME280;68371;42.630;23.192;2023-06-14T12:08:03;92118.56;;;27.17;50.25
64602;BME280;68371;42.630;23.192;2023-06-14T12:10:39;92097.88;;;26.96;48.61
64602;BME280;68371;42.630;23.192;2023-06-14T12:13:06;92108.22;;;27.07;48.36
64602;BME280;68371;42.630;23.192;2023-06-14T12:15:36;92117.06;;;27.16;52.03
64602;BME280;68371;42.630;23.192;2023-06-14T12:18:05;92122.22;;;27.51;50.98
64602;BME280;68371;42.630;23.192;2023-06-14T12:20:33;92117.72;;;27.85;49.84
64602;BME280;68371;42.630;23.192;2023-06-14T12:23:03;92110.50;;;28.19;48.69
64602;BME280;68371;42.630;23.192;2023-06-14T12:25:34;92120.66;;;28.24;45.29
64602;BME280;68371;42.630;23.192;2023-06-14T12:28:05;92121.06;;;28.50;46.63
64602;BME280;68371;42.630;23.192;2023-06-14T12:30:32;92109.72;;;28.80;44.19
64602;BME280;68371;42.630;23.192;2023-06-14T12:33:02;92106.09;;;28.83;45.14
64602;BME280;68371;42.630;23.192;2023-06-14T12:35:29;92103.41;;;29.07;46.29
64602;BME280;68371;42.630;23.192;2023-06-14T12:37:57;92094.56;;;29.06;46.17
64602;BME280;68371;42.630;23.192;2023-06-14T12:40:24;92091.44;;;28.99;43.62
64602;BME280;68371;42.630;23.192;2023-06-14T12:42:51;92087.09;;;28.68;44.81
64602;BME280;68371;42.630;23.192;2023-06-14T12:45:18;92085.25;;;28.31;46.17
64602;BME280;68371;42.630;23.192;2023-06-14T12:47:45;92095.25;;;27.51;48.31
64602;BME280;68371;42.630;23.192;2023-06-14T12:50:13;92086.22;;;27.17;49.04
64602;BME280;68371;42.630;23.192;2023-06-14T12:52:40;92083.66;;;27.14;48.26
64602;BME280;68371;42.630;23.192;2023-06-14T12:55:07;92075.09;;;26.78;50.03